createdAt,value
2022-09-25T00:03:43.475Z,1.23
2022-09-25T00:13:56.253Z,1.08
2022-09-25T00:24:11.067Z,1.20
2022-09-25T00:34:19.120Z,1.05
2022-09-25T00:45:02.348Z,1.20
2022-09-25T00:55:14.664Z,0.90
2022-09-25T01:05:32.685Z,1.45
2022-09-25T01:15:46.173Z,1.10
2022-09-25T01:26:07.514Z,1.42
2022-09-25T01:36:23.707Z,1.20
2022-09-25T01:46:36.277Z,1.98
2022-09-25T01:56:50.973Z,1.00
2022-09-25T02:07:01.871Z,1.45
2022-09-25T02:28:08.383Z,1.00
2022-09-25T02:38:20.944Z,1.10
2022-09-25T02:48:42.528Z,1.20
2022-09-25T02:58:55.728Z,1.00
2022-09-25T03:09:14.382Z,1.00
2022-09-25T03:19:24.414Z,1.02
2022-09-25T03:29:32.815Z,1.20
2022-09-25T03:51:27.567Z,1.35
2022-09-25T04:01:39.972Z,2.13
2022-09-25T04:11:53.844Z,1.42
2022-09-25T04:22:09.779Z,1.48
2022-09-25T04:32:36.370Z,1.67
2022-09-25T04:42:45.462Z,1.95
2022-09-25T04:52:56.118Z,2.00
2022-09-25T05:03:07.298Z,2.33
2022-09-25T05:13:18.218Z,2.28
2022-09-25T05:23:33.391Z,3.45
2022-09-25T05:33:40.763Z,2.20
2022-09-25T05:43:51.469Z,2.40
2022-09-25T05:53:59.105Z,1.90
2022-09-25T06:04:09.661Z,2.17
2022-09-25T06:14:20.486Z,2.25
2022-09-25T06:24:30.085Z,2.40
2022-09-25T06:34:48.691Z,2.38
2022-09-25T06:45:07.420Z,2.10
2022-09-25T06:55:14.890Z,2.00
2022-09-25T07:05:25.067Z,2.67
2022-09-25T07:15:32.704Z,1.83
2022-09-25T07:25:41.746Z,2.45
2022-09-25T07:35:49.211Z,1.95
2022-09-25T07:45:58.086Z,1.65
2022-09-25T07:56:07.125Z,1.80
2022-09-25T08:06:17.115Z,1.58
2022-09-25T08:16:27.935Z,1.55
2022-09-25T08:26:37.543Z,1.50
2022-09-25T08:36:44.835Z,1.85
2022-09-25T08:47:18.487Z,1.30
2022-09-25T08:57:36.031Z,1.30
2022-09-25T09:07:51.228Z,1.30
2022-09-25T09:18:00.235Z,1.30
2022-09-25T09:28:30.095Z,1.13
2022-09-25T09:38:45.218Z,1.15
2022-09-25T09:49:05.202Z,1.30
2022-09-25T09:59:19.349Z,0.90
2022-09-25T10:09:34.933Z,1.02
2022-09-25T10:19:51.648Z,1.30
2022-09-25T10:30:27.293Z,1.00
2022-09-25T10:40:37.997Z,0.93
2022-09-25T10:50:47.981Z,1.20
2022-09-25T11:00:59.324Z,1.35
2022-09-25T11:11:10.498Z,0.90
2022-09-25T11:21:31.407Z,1.13
2022-09-25T11:31:45.605Z,1.00
2022-09-25T11:42:00.530Z,1.10
2022-09-25T11:52:42.866Z,0.90
2022-09-25T12:03:05.509Z,0.80
2022-09-25T12:13:20.630Z,1.00
2022-09-25T12:23:37.834Z,0.70
2022-09-25T12:33:56.200Z,0.85
2022-09-25T12:44:13.166Z,0.90
2022-09-25T12:54:28.355Z,0.80
2022-09-25T13:04:52.417Z,1.30
2022-09-25T13:15:03.959Z,1.85
2022-09-25T13:25:19.463Z,1.90
2022-09-25T13:35:27.460Z,2.00
2022-09-25T13:45:38.256Z,1.98
2022-09-25T13:55:46.060Z,1.55
2022-09-25T14:05:55.640Z,1.90
2022-09-25T14:16:04.731Z,1.35
2022-09-25T14:26:23.647Z,1.60
2022-09-25T14:36:40.753Z,1.63
2022-09-25T14:46:54.987Z,1.50
2022-09-25T14:57:03.109Z,1.30
2022-09-25T15:07:21.046Z,1.40
2022-09-25T15:17:30.259Z,1.38
2022-09-25T15:27:45.316Z,1.60
2022-09-25T15:37:52.898Z,1.52
2022-09-25T15:48:02.650Z,1.42
2022-09-25T15:58:16.096Z,1.20
2022-09-25T16:08:33.197Z,1.77
2022-09-25T16:18:43.793Z,1.10
2022-09-25T16:29:02.711Z,1.58
2022-09-25T16:39:30.256Z,1.20
2022-09-25T16:49:39.377Z,1.52
2022-09-25T16:59:51.397Z,1.40
2022-09-25T17:10:03.902Z,1.05
2022-09-25T17:20:14.268Z,1.33
2022-09-25T17:30:23.958Z,1.35
2022-09-25T17:40:38.043Z,1.88
2022-09-25T17:50:49.175Z,1.55
2022-09-25T18:01:01.920Z,1.17
2022-09-25T18:11:14.565Z,0.90
2022-09-25T18:21:39.170Z,1.00
2022-09-25T18:31:49.848Z,0.77
2022-09-25T18:41:57.339Z,0.90
2022-09-25T18:52:07.028Z,0.90
2022-09-25T19:02:28.332Z,1.08
2022-09-25T19:12:37.600Z,0.73
2022-09-25T19:22:46.041Z,0.90
2022-09-25T19:32:58.463Z,0.90
2022-09-25T19:43:05.653Z,1.55
2022-09-25T19:53:14.762Z,0.98
2022-09-25T20:03:25.292Z,0.80
2022-09-25T20:13:44.213Z,1.13
2022-09-25T20:23:54.471Z,0.82
2022-09-25T20:34:04.376Z,0.80
2022-09-25T20:44:11.847Z,0.90
2022-09-25T20:54:21.602Z,0.90
2022-09-25T21:04:28.959Z,1.20
2022-09-25T21:14:38.247Z,0.80
2022-09-25T21:24:45.677Z,0.82
2022-09-25T21:34:56.396Z,1.30
2022-09-25T21:45:05.917Z,0.82
2022-09-25T21:55:15.535Z,1.13
2022-09-25T22:05:22.994Z,0.90
2022-09-25T22:15:32.060Z,1.10
2022-09-25T22:25:39.556Z,1.00
2022-09-25T22:35:49.297Z,1.30
2022-09-25T22:45:56.975Z,1.23
2022-09-25T22:56:15.029Z,1.15
2022-09-25T23:06:22.623Z,0.93
2022-09-25T23:16:33.848Z,1.00
2022-09-25T23:26:41.588Z,1.30
2022-09-25T23:36:51.451Z,1.25
2022-09-25T23:47:03.923Z,1.27
2022-09-25T23:57:16.232Z,1.00
